Time;durP1;ratioP1;P1;durP2;ratioP2;P2;SDS_P1;SDS_P2;PMS_P1;PMS_P2;Temp;Humidity;BMP_temperature;BMP_pressure;BME280_temperature;BME280_humidity;BME280_pressure;Samples;Min_cycle;Max_cycle;Signal;HPM_P1;HPM_P2
2022/07/23 00:00:33;;;;;;;6.85;5.43;;;15.90;99.90;;;;;;5094609;28;20024;-75
2022/07/23 00:02:59;;;;;;;8.77;5.65;;;15.90;99.90;;;;;;5093318;28;20544;-77
2022/07/23 00:05:24;;;;;;;7.82;5.57;;;15.90;99.90;;;;;;5092922;28;20024;-76
2022/07/23 00:07:50;;;;;;;7.53;5.22;;;15.80;99.90;;;;;;5093913;28;20514;-77
2022/07/23 00:10:16;;;;;;;6.57;5.90;;;15.80;99.90;;;;;;5093455;28;20072;-75
2022/07/23 00:12:41;;;;;;;7.80;6.45;;;15.80;99.90;;;;;;5093348;28;20027;-76
2022/07/23 00:15:08;;;;;;;9.60;6.47;;;15.80;99.90;;;;;;5092809;28;20928;-77
2022/07/23 00:17:33;;;;;;;9.13;6.88;;;15.80;99.90;;;;;;5093198;28;20035;-75
2022/07/23 00:20:00;;;;;;;7.47;6.55;;;15.80;99.90;;;;;;5092416;28;20016;-75
2022/07/23 00:22:27;;;;;;;7.05;6.40;;;15.80;99.90;;;;;;5092758;28;20064;-75
2022/07/23 00:24:53;;;;;;;10.10;6.05;;;15.80;99.90;;;;;;5092885;28;20097;-76
2022/07/23 00:27:18;;;;;;;7.10;6.40;;;15.80;99.90;;;;;;5092489;28;20467;-76
2022/07/23 00:29:44;;;;;;;6.40;5.85;;;15.80;99.90;;;;;;5092791;28;20052;-76
2022/07/23 00:32:10;;;;;;;6.15;5.55;;;15.70;99.90;;;;;;5092459;28;20058;-74
2022/07/23 00:34:35;;;;;;;8.43;6.22;;;15.60;99.90;;;;;;5092185;28;20054;-75
2022/07/23 00:37:01;;;;;;;6.57;5.97;;;15.50;99.90;;;;;;5092664;28;20030;-77
2022/07/23 00:39:26;;;;;;;8.48;5.43;;;15.40;99.90;;;;;;5078692;28;20387;-76
2022/07/23 00:41:52;;;;;;;6.88;6.25;;;15.40;99.90;;;;;;5091969;28;20111;-76
2022/07/23 00:44:23;;;;;;;8.63;6.25;;;15.30;99.90;;;;;;5092573;28;20052;-76
2022/07/23 00:46:54;;;;;;;8.30;6.05;;;15.40;99.90;;;;;;5092526;28;20471;-76
2022/07/23 00:49:26;;;;;;;16.45;6.15;;;15.20;99.90;;;;;;5092166;28;20471;-75
2022/07/23 00:51:52;;;;;;;6.03;5.60;;;15.20;99.90;;;;;;5092300;28;20075;-76
2022/07/23 00:54:23;;;;;;;6.70;6.05;;;15.20;99.90;;;;;;5093026;28;20047;-77
2022/07/23 00:56:48;;;;;;;8.20;6.07;;;15.20;99.90;;;;;;5092919;28;20019;-77
2022/07/23 00:59:14;;;;;;;6.22;5.72;;;15.30;99.90;;;;;;5092783;28;20020;-76
2022/07/23 01:01:40;;;;;;;6.43;5.82;;;15.30;99.90;;;;;;5091513;28;20577;-76
2022/07/23 01:04:06;;;;;;;9.07;6.00;;;15.30;99.90;;;;;;5092755;28;20484;-76
2022/07/23 01:06:36;;;;;;;6.88;6.22;;;15.30;99.90;;;;;;5092605;28;20031;-75
2022/07/23 01:09:02;;;;;;;8.00;6.85;;;15.40;99.90;;;;;;5092162;28;20020;-76
2022/07/23 01:11:27;;;;;;;7.38;5.93;;;15.30;99.90;;;;;;5092539;28;20052;-76
2022/07/23 01:13:53;;;;;;;7.95;6.60;;;15.20;99.90;;;;;;5092270;28;20027;-75
2022/07/23 01:16:19;;;;;;;11.40;6.80;;;15.10;99.90;;;;;;5093047;28;20112;-75
2022/07/23 01:18:45;;;;;;;11.75;6.60;;;15.10;99.90;;;;;;5096240;28;20078;-77
2022/07/23 01:21:15;;;;;;;7.13;6.43;;;15.10;99.90;;;;;;5096356;28;20498;-77
2022/07/23 01:23:41;;;;;;;7.68;6.88;;;15.10;99.90;;;;;;5095615;28;20475;-76
2022/07/23 01:26:06;;;;;;;7.22;6.70;;;15.00;99.90;;;;;;5096138;28;20032;-76
2022/07/23 01:28:32;;;;;;;9.13;6.55;;;15.00;99.90;;;;;;5099240;28;20027;-77
2022/07/23 01:30:58;;;;;;;7.72;6.93;;;14.90;99.90;;;;;;5108399;28;20020;-75
2022/07/23 01:33:23;;;;;;;8.07;5.97;;;14.80;99.90;;;;;;5113802;28;20348;-76
2022/07/23 01:35:49;;;;;;;8.50;6.47;;;14.80;99.90;;;;;;5104510;28;20020;-76
2022/07/23 01:38:14;;;;;;;7.00;6.38;;;14.80;99.90;;;;;;5086508;28;20021;-77
2022/07/23 01:40:40;;;;;;;8.00;5.97;;;14.70;99.90;;;;;;5091807;28;20028;-77
2022/07/23 01:43:06;;;;;;;6.88;6.28;;;14.70;99.90;;;;;;5088693;28;20028;-77
2022/07/23 01:45:31;;;;;;;10.35;7.30;;;14.60;99.90;;;;;;5089028;28;20406;-76
2022/07/23 01:47:57;;;;;;;6.47;5.75;;;14.70;99.90;;;;;;5095568;28;20038;-77
2022/07/23 01:50:22;;;;;;;9.38;7.53;;;14.70;99.90;;;;;;5096404;28;20471;-77
2022/07/23 01:52:48;;;;;;;7.25;6.55;;;14.60;99.90;;;;;;5094907;28;20028;-77
2022/07/23 01:55:13;;;;;;;10.00;6.88;;;14.70;99.90;;;;;;5095707;28;20028;-76
2022/07/23 01:57:39;;;;;;;8.82;6.43;;;14.60;99.90;;;;;;5094978;28;20024;-75
2022/07/23 02:00:05;;;;;;;7.88;6.57;;;14.60;99.90;;;;;;5095658;28;20036;-77
2022/07/23 02:02:33;;;;;;;7.57;6.20;;;14.50;99.90;;;;;;5095461;28;20039;-77
2022/07/23 02:04:59;;;;;;;8.05;7.25;;;14.50;99.90;;;;;;5094709;28;20016;-75
2022/07/23 02:07:24;;;;;;;10.18;7.32;;;14.50;99.90;;;;;;5095901;28;20498;-77
2022/07/23 02:09:52;;;;;;;8.77;6.95;;;14.40;99.90;;;;;;5095065;28;20016;-76
2022/07/23 02:12:18;;;;;;;8.32;7.43;;;14.40;99.90;;;;;;5095089;28;20111;-76
2022/07/23 02:14:43;;;;;;;7.30;6.60;;;14.40;99.90;;;;;;5095137;28;20166;-76
2022/07/23 02:17:10;;;;;;;6.65;6.05;;;14.40;99.90;;;;;;5095097;28;20020;-76
2022/07/23 02:19:36;;;;;;;6.40;5.63;;;14.30;99.90;;;;;;5094752;28;20402;-76
2022/07/23 02:22:01;;;;;;;8.10;7.43;;;14.30;99.90;;;;;;5094774;28;20035;-76
2022/07/23 02:24:27;;;;;;;10.43;7.22;;;14.30;99.90;;;;;;5095600;28;20031;-75
2022/07/23 02:26:52;;;;;;;8.32;6.72;;;14.20;99.90;;;;;;5094885;28;20449;-76
2022/07/23 02:29:18;;;;;;;10.38;7.40;;;14.20;99.90;;;;;;5086642;28;20439;-77
2022/07/23 02:31:44;;;;;;;8.38;7.57;;;14.20;99.90;;;;;;5074527;28;20411;-77
2022/07/23 02:34:11;;;;;;;6.90;6.30;;;14.20;99.90;;;;;;5077402;28;20103;-76
2022/07/23 02:36:38;;;;;;;6.97;6.35;;;14.20;99.90;;;;;;5094531;28;20059;-77
2022/07/23 02:39:04;;;;;;;8.70;5.75;;;14.20;99.90;;;;;;5080650;28;20026;-76
2022/07/23 02:41:29;;;;;;;7.28;6.57;;;14.10;99.90;;;;;;5094599;28;20024;-77
2022/07/23 02:43:55;;;;;;;6.68;6.05;;;14.10;99.90;;;;;;5094543;28;20035;-77
2022/07/23 02:46:20;;;;;;;6.88;6.28;;;14.10;99.90;;;;;;5087021;28;20016;-77
2022/07/23 02:48:46;;;;;;;6.68;6.07;;;14.10;99.90;;;;;;5088714;28;20475;-77
2022/07/23 02:51:11;;;;;;;8.25;7.32;;;14.10;99.90;;;;;;5094162;28;20020;-76
2022/07/23 02:53:37;;;;;;;7.40;6.78;;;14.10;99.90;;;;;;5095233;28;20036;-76
2022/07/23 02:56:03;;;;;;;8.77;6.15;;;14.10;99.90;;;;;;5093530;28;20356;-76
2022/07/23 02:58:28;;;;;;;7.45;6.75;;;14.00;99.90;;;;;;5094475;28;20028;-75
2022/07/23 03:00:54;;;;;;;5.85;5.25;;;14.00;99.90;;;;;;5093848;28;20027;-76
2022/07/23 03:03:19;;;;;;;6.43;5.90;;;14.10;99.90;;;;;;5087197;28;20071;-76
2022/07/23 03:05:45;;;;;;;6.05;5.55;;;14.00;99.90;;;;;;5087144;28;20020;-76
2022/07/23 03:08:10;;;;;;;6.63;6.13;;;14.00;99.90;;;;;;5093502;28;20039;-76
2022/07/23 03:10:36;;;;;;;7.25;6.47;;;14.00;99.90;;;;;;5093780;28;20123;-75
2022/07/23 03:13:02;;;;;;;10.63;7.65;;;14.10;99.90;;;;;;5075824;28;20019;-76
2022/07/23 03:15:36;;;;;;;7.20;6.38;;;14.10;99.90;;;;;;5094009;28;20030;-76
2022/07/23 03:18:02;;;;;;;9.00;7.53;;;14.20;99.90;;;;;;5093970;28;20028;-76
2022/07/23 03:20:28;;;;;;;8.80;6.60;;;14.20;99.90;;;;;;5094845;28;20023;-76
2022/07/23 03:22:53;;;;;;;7.10;6.38;;;14.10;99.90;;;;;;5093643;28;20368;-76
2022/07/23 03:25:19;;;;;;;9.95;7.30;;;14.00;99.90;;;;;;5093914;28;20046;-76
2022/07/23 03:27:45;;;;;;;8.88;7.97;;;13.90;99.90;;;;;;5094936;28;20024;-76
2022/07/23 03:30:11;;;;;;;8.13;7.28;;;13.90;99.90;;;;;;5110436;28;20028;-76
2022/07/23 03:32:37;;;;;;;9.55;7.63;;;13.90;99.90;;;;;;5109221;28;20084;-76
2022/07/23 03:35:03;;;;;;;10.95;7.38;;;13.90;99.90;;;;;;5104558;28;20031;-76
2022/07/23 03:37:29;;;;;;;8.10;7.15;;;13.90;99.90;;;;;;5086432;28;20122;-76
2022/07/23 03:39:54;;;;;;;7.38;6.68;;;13.90;99.90;;;;;;5086761;28;20020;-76
2022/07/23 03:42:20;;;;;;;11.40;6.82;;;13.90;99.90;;;;;;5093531;28;20043;-76
2022/07/23 03:44:46;;;;;;;8.85;6.97;;;13.90;99.90;;;;;;5093235;28;20134;-76
2022/07/23 03:47:11;;;;;;;8.98;6.80;;;14.00;99.90;;;;;;5092660;28;20055;-77
2022/07/23 03:49:37;;;;;;;8.80;6.05;;;14.00;99.90;;;;;;5093444;28;20028;-75
2022/07/23 03:52:03;;;;;;;6.78;6.05;;;14.00;99.90;;;;;;5092514;28;20050;-76
2022/07/23 03:54:29;;;;;;;6.47;5.75;;;14.00;99.90;;;;;;5093014;28;20029;-76
2022/07/23 03:56:55;;;;;;;7.25;6.47;;;14.00;99.90;;;;;;5093152;28;20039;-76
2022/07/23 03:59:21;;;;;;;6.47;5.88;;;14.00;99.90;;;;;;5092756;28;20028;-76
2022/07/23 04:01:46;;;;;;;6.30;5.75;;;14.00;99.90;;;;;;5092859;28;20024;-76
2022/07/23 04:04:12;;;;;;;8.25;6.25;;;14.00;99.90;;;;;;5092594;28;20500;-76
2022/07/23 04:06:37;;;;;;;6.60;6.00;;;14.10;99.90;;;;;;5093119;28;20027;-76
2022/07/23 04:09:04;;;;;;;7.43;5.95;;;14.10;99.90;;;;;;5091921;28;20067;-75
2022/07/23 04:11:30;;;;;;;6.75;5.30;;;14.10;99.90;;;;;;5092616;28;20551;-75
2022/07/23 04:13:55;;;;;;;6.38;5.78;;;14.00;99.90;;;;;;5092873;28;20020;-75
2022/07/23 04:16:21;;;;;;;6.53;5.45;;;14.10;99.90;;;;;;5092897;28;20079;-76
2022/07/23 04:18:46;;;;;;;5.75;5.25;;;14.10;99.90;;;;;;5092679;28;20028;-76
2022/07/23 04:21:12;;;;;;;8.13;5.75;;;14.10;99.90;;;;;;5092285;28;20013;-76
2022/07/23 04:23:37;;;;;;;5.60;5.10;;;14.10;99.90;;;;;;5093072;28;20028;-76
2022/07/23 04:26:03;;;;;;;6.53;5.93;;;14.10;99.90;;;;;;5092049;28;20031;-77
2022/07/23 04:28:28;;;;;;;6.07;5.57;;;14.10;99.90;;;;;;5092784;28;20036;-76
2022/07/23 04:30:59;;;;;;;8.93;6.05;;;14.10;99.90;;;;;;5092736;28;20112;-75
2022/07/23 04:33:24;;;;;;;7.47;5.20;;;14.10;99.90;;;;;;5092366;28;20028;-76
2022/07/23 04:35:50;;;;;;;6.18;5.68;;;14.10;99.90;;;;;;5092641;28;20384;-76
2022/07/23 04:38:16;;;;;;;6.40;5.90;;;14.10;99.90;;;;;;5078731;28;20024;-76
2022/07/23 04:40:41;;;;;;;5.80;5.40;;;14.10;99.90;;;;;;5092089;28;20047;-76
2022/07/23 04:43:07;;;;;;;5.55;5.03;;;14.20;99.90;;;;;;5092485;28;20044;-76
2022/07/23 04:45:33;;;;;;;6.20;5.60;;;14.20;99.90;;;;;;5092631;28;20081;-75
2022/07/23 04:47:58;;;;;;;5.82;5.35;;;14.20;99.90;;;;;;5091642;28;20020;-75
2022/07/23 04:50:24;;;;;;;6.28;5.68;;;14.30;99.90;;;;;;5092159;28;20020;-76
2022/07/23 04:52:50;;;;;;;6.78;6.18;;;14.30;99.90;;;;;;5091728;28;20027;-76
2022/07/23 04:55:16;;;;;;;6.55;5.65;;;14.40;99.90;;;;;;5092516;28;20046;-76
2022/07/23 04:57:41;;;;;;;6.72;6.13;;;14.50;99.90;;;;;;5092481;28;20024;-76
2022/07/23 05:00:09;;;;;;;6.72;5.45;;;14.40;99.90;;;;;;5090375;28;20110;-75
2022/07/23 05:02:35;;;;;;;6.93;6.32;;;14.40;99.90;;;;;;5080994;28;20041;-76
2022/07/23 05:05:00;;;;;;;6.80;6.15;;;14.40;99.90;;;;;;5070145;28;20108;-76
2022/07/23 05:07:26;;;;;;;7.93;7.07;;;14.50;99.90;;;;;;5070768;28;20457;-76
2022/07/23 05:09:51;;;;;;;6.72;6.13;;;14.50;99.90;;;;;;5069987;28;20020;-76
2022/07/23 05:12:17;;;;;;;7.72;6.47;;;14.60;99.90;;;;;;5070755;28;20119;-75
2022/07/23 05:14:43;;;;;;;7.53;6.18;;;14.60;99.90;;;;;;5070656;28;20024;-76
2022/07/23 05:17:09;;;;;;;7.60;6.82;;;14.70;99.90;;;;;;5070399;28;20028;-76
2022/07/23 05:19:35;;;;;;;8.18;7.28;;;14.80;99.90;;;;;;5073528;28;20392;-76
2022/07/23 05:22:01;;;;;;;7.65;6.93;;;14.90;99.90;;;;;;5080244;28;20024;-76
2022/07/23 05:24:26;;;;;;;6.68;5.53;;;14.90;99.90;;;;;;5072388;28;20016;-76
2022/07/23 05:26:52;;;;;;;6.47;5.88;;;14.90;99.90;;;;;;5080931;28;20020;-75
2022/07/23 05:29:18;;;;;;;6.43;5.25;;;15.00;99.90;;;;;;5074689;28;20016;-75
2022/07/23 05:31:43;;;;;;;6.32;5.60;;;15.00;99.90;;;;;;5080595;28;20020;-75
2022/07/23 05:34:09;;;;;;;6.15;5.57;;;15.00;99.90;;;;;;5082158;28;20025;-75
2022/07/23 05:36:35;;;;;;;8.13;6.03;;;15.00;99.90;;;;;;5070585;28;20031;-76
2022/07/23 05:39:00;;;;;;;4.95;4.55;;;15.10;99.90;;;;;;5071301;28;20036;-76
2022/07/23 05:41:26;;;;;;;5.22;4.75;;;15.20;99.90;;;;;;5072268;28;20025;-76
2022/07/23 05:43:51;;;;;;;5.53;5.03;;;15.20;99.90;;;;;;5069851;28;20427;-74
2022/07/23 05:46:17;;;;;;;5.03;4.53;;;15.30;99.90;;;;;;5073275;28;20027;-76
2022/07/23 05:48:43;;;;;;;6.28;5.60;;;15.40;99.90;;;;;;5069712;28;20027;-76
2022/07/23 05:51:08;;;;;;;5.75;4.78;;;15.50;99.90;;;;;;5070109;28;20028;-76
2022/07/23 05:53:35;;;;;;;4.75;4.07;;;15.70;99.90;;;;;;5070611;28;20024;-76
2022/07/23 05:56:01;;;;;;;4.43;3.65;;;15.80;99.90;;;;;;5070512;28;20013;-77
2022/07/23 05:58:26;;;;;;;3.50;3.20;;;15.90;99.90;;;;;;5070180;28;20032;-76
2022/07/23 06:00:52;;;;;;;5.05;3.28;;;15.90;99.90;;;;;;5069780;28;20017;-76
2022/07/23 06:03:18;;;;;;;4.00;3.30;;;16.10;99.90;;;;;;5070891;28;20047;-76
2022/07/23 06:05:43;;;;;;;2.40;2.08;;;16.20;99.90;;;;;;5073663;28;20023;-77
2022/07/23 06:08:09;;;;;;;9.80;3.15;;;16.20;99.90;;;;;;5073817;28;20479;-75
2022/07/23 06:10:34;;;;;;;2.60;2.20;;;16.20;99.90;;;;;;5073912;28;20159;-77
2022/07/23 06:13:00;;;;;;;3.03;2.35;;;16.30;99.90;;;;;;5073133;28;20029;-76
2022/07/23 06:15:26;;;;;;;5.55;2.60;;;16.40;99.90;;;;;;5074116;28;20027;-75
2022/07/23 06:17:51;;;;;;;3.88;2.33;;;16.50;99.90;;;;;;5072645;28;20025;-76
2022/07/23 06:20:17;;;;;;;4.72;3.53;;;16.50;99.90;;;;;;5082261;28;20020;-76
2022/07/23 06:22:42;;;;;;;4.18;2.50;;;16.60;99.90;;;;;;5073831;28;20032;-76
2022/07/23 06:25:08;;;;;;;2.08;1.85;;;16.80;99.90;;;;;;5073247;28;20630;-76
2022/07/23 06:27:34;;;;;;;2.10;1.90;;;16.70;99.90;;;;;;5073792;28;20027;-76
2022/07/23 06:29:59;;;;;;;4.10;2.40;;;16.70;99.90;;;;;;5076373;28;20376;-77
2022/07/23 06:32:25;;;;;;;2.97;2.60;;;16.80;99.90;;;;;;5073029;28;20012;-76
2022/07/23 06:34:50;;;;;;;3.67;3.05;;;16.90;99.90;;;;;;5072975;28;20028;-77
2022/07/23 06:37:16;;;;;;;3.58;3.13;;;16.90;99.90;;;;;;5073842;28;20116;-76
2022/07/23 06:39:42;;;;;;;6.35;3.17;;;16.90;99.90;;;;;;5076268;28;20707;-76
2022/07/23 06:42:07;;;;;;;4.80;2.60;;;17.10;99.90;;;;;;5073146;28;20044;-76
2022/07/23 06:44:33;;;;;;;2.75;2.55;;;17.20;99.90;;;;;;5081006;28;20025;-76
2022/07/23 06:46:58;;;;;;;2.65;2.45;;;17.20;99.90;;;;;;5078163;28;20063;-76
2022/07/23 06:49:24;;;;;;;4.80;2.80;;;17.20;99.90;;;;;;5081757;28;20036;-77
2022/07/23 06:51:50;;;;;;;4.15;2.55;;;17.10;99.90;;;;;;5077920;28;20467;-77
2022/07/23 06:54:15;;;;;;;4.22;2.78;;;17.20;99.90;;;;;;5082678;28;20024;-77
2022/07/23 06:56:42;;;;;;;5.25;2.35;;;17.20;99.90;;;;;;5081082;28;20020;-77
2022/07/23 06:59:08;;;;;;;6.70;3.47;;;17.20;99.90;;;;;;5081401;28;20044;-77
2022/07/23 07:01:33;;;;;;;3.53;2.30;;;17.30;99.90;;;;;;5093194;28;20065;-77
2022/07/23 07:03:59;;;;;;;3.90;2.15;;;17.40;99.90;;;;;;5088789;28;20016;-77
2022/07/23 07:06:25;;;;;;;2.97;2.60;;;17.40;99.90;;;;;;5083919;28;20036;-77
2022/07/23 07:08:50;;;;;;;6.40;2.75;;;17.50;99.90;;;;;;5073349;28;20008;-76
2022/07/23 07:11:16;;;;;;;4.13;2.38;;;17.60;99.90;;;;;;5071834;28;20518;-76
2022/07/23 07:13:41;;;;;;;3.53;2.50;;;17.70;99.90;;;;;;5074242;28;20032;-76
2022/07/23 07:16:07;;;;;;;3.22;2.20;;;17.90;99.90;;;;;;5074435;28;20036;-76
2022/07/23 07:18:32;;;;;;;3.25;2.83;;;18.00;99.90;;;;;;5072764;28;20562;-76
2022/07/23 07:20:58;;;;;;;3.40;2.53;;;18.00;99.90;;;;;;5072595;28;20460;-76
2022/07/23 07:23:24;;;;;;;4.88;3.28;;;18.10;99.90;;;;;;5071917;28;20105;-76
2022/07/23 07:25:50;;;;;;;4.57;3.08;;;18.10;99.90;;;;;;5073402;28;20029;-76
2022/07/23 07:28:15;;;;;;;3.72;3.22;;;18.10;99.90;;;;;;5076797;28;20025;-75
2022/07/23 07:30:42;;;;;;;3.97;2.45;;;18.10;99.90;;;;;;5081672;28;20132;-74
2022/07/23 07:33:07;;;;;;;4.15;3.80;;;18.10;99.90;;;;;;5079047;28;20058;-75
2022/07/23 07:35:33;;;;;;;2.90;2.63;;;18.10;99.90;;;;;;5083840;28;20012;-77
2022/07/23 07:37:59;;;;;;;4.18;3.40;;;18.10;99.90;;;;;;5076098;28;20095;-77
2022/07/23 07:40:26;;;;;;;4.95;4.32;;;18.20;99.90;;;;;;5087391;28;20056;-76
2022/07/23 07:42:54;;;;;;;8.52;3.08;;;18.30;99.90;;;;;;5073234;28;20039;-76
2022/07/23 07:45:20;;;;;;;3.53;2.65;;;18.20;99.90;;;;;;5073281;28;20029;-77
2022/07/23 07:47:46;;;;;;;4.97;3.05;;;18.20;99.90;;;;;;5073065;28;20029;-76
2022/07/23 07:50:12;;;;;;;4.35;3.13;;;18.30;99.90;;;;;;5072750;28;20024;-78
2022/07/23 07:52:38;;;;;;;3.00;2.70;;;18.30;99.90;;;;;;5073237;28;20497;-76
2022/07/23 07:55:04;;;;;;;4.00;2.47;;;18.20;99.90;;;;;;5072773;28;20040;-75
2022/07/23 07:57:30;;;;;;;4.78;2.40;;;18.30;99.90;;;;;;5072620;28;20035;-74
2022/07/23 07:59:56;;;;;;;5.65;3.30;;;18.30;99.90;;;;;;5072848;28;20017;-75
2022/07/23 08:02:21;;;;;;;3.13;2.72;;;18.40;99.90;;;;;;5072988;28;20032;-74
2022/07/23 08:04:48;;;;;;;5.72;3.30;;;18.50;99.90;;;;;;5072588;28;20039;-74
2022/07/23 08:07:14;;;;;;;5.30;2.63;;;18.50;99.90;;;;;;5072791;28;20032;-73
2022/07/23 08:09:40;;;;;;;6.72;3.00;;;18.50;99.90;;;;;;5072829;28;20460;-74
2022/07/23 08:12:05;;;;;;;4.50;2.85;;;18.50;99.90;;;;;;5072368;28;20125;-73
2022/07/23 08:14:31;;;;;;;9.10;3.30;;;18.50;99.90;;;;;;5072454;28;20483;-74
2022/07/23 08:16:57;;;;;;;2.40;2.20;;;18.60;99.90;;;;;;5073053;28;20477;-76
2022/07/23 08:19:22;;;;;;;4.45;3.15;;;18.60;99.90;;;;;;5072257;28;20031;-75
2022/07/23 08:21:48;;;;;;;3.80;2.80;;;18.70;99.90;;;;;;5072775;28;20123;-76
2022/07/23 08:24:13;;;;;;;2.72;2.53;;;18.80;99.90;;;;;;5073239;28;20052;-75
2022/07/23 08:26:39;;;;;;;3.25;2.42;;;18.80;99.90;;;;;;5073538;28;20111;-75
2022/07/23 08:29:04;;;;;;;4.90;2.63;;;18.80;99.90;;;;;;5075655;28;20052;-76
2022/07/23 08:31:32;;;;;;;6.63;2.92;;;18.90;99.90;;;;;;5074173;28;20450;-76
2022/07/23 08:33:58;;;;;;;4.93;2.90;;;19.00;99.90;;;;;;5082468;28;20048;-77
2022/07/23 08:36:24;;;;;;;4.55;3.40;;;19.10;99.90;;;;;;5071414;28;20105;-74
2022/07/23 08:38:49;;;;;;;5.90;2.92;;;19.10;99.90;;;;;;5075774;28;20016;-75
2022/07/23 08:41:16;;;;;;;3.47;2.65;;;19.20;99.90;;;;;;5092599;28;20024;-73
2022/07/23 08:43:42;;;;;;;3.85;2.50;;;19.20;99.90;;;;;;5083508;28;20530;-74
2022/07/23 08:46:09;;;;;;;4.28;2.47;;;19.20;99.90;;;;;;5081043;28;20031;-74
2022/07/23 08:48:38;;;;;;;5.07;2.90;;;19.20;99.90;;;;;;5092315;28;20044;-74
2022/07/23 08:51:05;;;;;;;3.55;3.10;;;19.40;99.90;;;;;;5092826;28;20107;-74
2022/07/23 08:53:32;;;;;;;3.33;2.30;;;19.50;99.90;;;;;;5077541;28;20036;-74
2022/07/23 08:56:04;;;;;;;10.60;2.95;;;19.60;99.90;;;;;;5073849;28;20035;-74
2022/07/23 08:58:30;;;;;;;5.47;2.88;;;19.70;99.90;;;;;;5084850;28;20027;-75
2022/07/23 09:00:57;;;;;;;3.88;2.42;;;19.80;99.90;;;;;;5089904;28;20431;-74
2022/07/23 09:03:25;;;;;;;3.60;2.47;;;19.80;99.90;;;;;;5083951;28;20131;-75
2022/07/23 09:05:52;;;;;;;3.90;3.03;;;19.90;99.90;;;;;;5071265;28;20051;-74
2022/07/23 09:08:22;;;;;;;3.13;2.60;;;20.00;99.90;;;;;;5071032;28;20032;-74
2022/07/23 09:10:59;;;;;;;2.97;2.38;;;20.00;99.90;;;;;;5071697;28;20045;-75
2022/07/23 09:13:42;;;;;;;4.85;3.45;;;20.10;99.90;;;;;;5072294;28;20047;-75
2022/07/23 09:16:10;;;;;;;4.47;3.70;;;20.20;99.90;;;;;;5071902;28;20041;-75
2022/07/23 09:18:47;;;;;;;6.10;4.75;;;20.20;99.90;;;;;;5072186;28;20012;-74
2022/07/23 09:21:25;;;;;;;3.75;3.03;;;20.30;99.90;;;;;;5071510;28;20380;-74
2022/07/23 09:23:53;;;;;;;4.20;3.30;;;20.30;99.90;;;;;;5071563;28;20032;-74
2022/07/23 09:26:24;;;;;;;3.20;3.00;;;20.30;99.90;;;;;;5071625;28;20482;-75
2022/07/23 09:28:51;;;;;;;3.72;2.95;;;20.40;99.90;;;;;;5071135;28;20040;-75
2022/07/23 09:31:17;;;;;;;4.88;2.53;;;20.40;99.90;;;;;;5071263;28;20028;-74
2022/07/23 09:33:43;;;;;;;7.68;6.20;;;20.50;99.90;;;;;;5071911;28;20025;-74
2022/07/23 09:36:09;;;;;;;6.93;3.60;;;20.50;99.90;;;;;;5070935;28;20031;-74
2022/07/23 09:38:47;;;;;;;5.53;3.92;;;20.60;99.90;;;;;;5076958;28;20031;-74
2022/07/23 09:41:13;;;;;;;5.93;4.55;;;20.60;99.90;;;;;;5096351;28;20024;-74
2022/07/23 09:43:39;;;;;;;9.68;4.50;;;20.60;99.90;;;;;;5095113;28;20043;-75
2022/07/23 09:46:18;;;;;;;4.43;3.90;;;20.80;99.90;;;;;;5096112;28;20035;-75
2022/07/23 09:48:45;;;;;;;3.58;3.28;;;20.90;99.90;;;;;;5096270;28;20024;-75
2022/07/23 09:51:10;;;;;;;3.97;3.55;;;20.90;99.90;;;;;;5096227;28;20028;-75
2022/07/23 09:53:36;;;;;;;3.50;3.20;;;20.90;99.90;;;;;;5095885;28;20028;-74
2022/07/23 09:56:02;;;;;;;3.03;2.75;;;20.90;99.90;;;;;;5095151;28;20498;-74
2022/07/23 09:58:30;;;;;;;8.10;4.32;;;20.90;99.90;;;;;;5095630;28;20486;-74
2022/07/23 10:00:57;;;;;;;7.80;3.85;;;20.90;99.90;;;;;;5095367;28;20129;-75
2022/07/23 10:03:24;;;;;;;4.57;3.78;;;21.10;99.90;;;;;;5087707;28;20040;-70
2022/07/23 10:05:51;;;;;;;3.90;3.00;;;21.20;99.90;;;;;;5085692;28;20016;-74
2022/07/23 10:08:18;;;;;;;47.47;21.77;;;21.20;99.90;;;;;;5075503;28;20055;-73
2022/07/23 10:10:46;;;;;;;18.85;9.95;;;21.20;99.90;;;;;;5085726;28;20040;-74
2022/07/23 10:15:41;;;;;;;5.70;4.22;;;21.30;99.90;;;;;;5099985;28;20020;-74
2022/07/23 10:18:07;;;;;;;4.25;3.85;;;21.30;99.90;;;;;;5095498;28;20039;-76
2022/07/23 10:20:33;;;;;;;5.60;4.20;;;21.40;99.90;;;;;;5095458;28;20174;-75
2022/07/23 10:23:25;;;;;;;7.25;4.68;;;21.40;99.90;;;;;;5094908;28;20443;-75
2022/07/23 10:26:20;;;;;;;4.15;2.60;;;21.40;99.90;;;;;;5094439;28;20020;-73
2022/07/23 10:29:33;;;;;;;7.78;3.97;;;21.50;99.90;;;;;;5095102;28;20020;-71
2022/07/23 10:32:04;;;;;;;4.50;2.80;;;21.60;99.90;;;;;;5061822;28;20116;-75
2022/07/23 10:34:35;;;;;;;6.60;3.63;;;21.60;99.90;;;;;;5095237;28;20123;-72
2022/07/23 10:37:22;;;;;;;3.95;3.00;;;21.70;99.90;;;;;;5080199;28;20375;-74
2022/07/23 10:39:47;;;;;;;5.00;3.50;;;21.80;99.90;;;;;;5086478;28;20027;-73
2022/07/23 10:42:17;;;;;;;9.50;3.90;;;21.80;99.60;;;;;;5094835;28;20043;-74
2022/07/23 10:44:45;;;;;;;5.18;3.28;;;21.90;99.30;;;;;;5088551;28;20024;-73
2022/07/23 10:49:50;;;;;;;6.70;3.33;;;22.00;99.90;;;;;;5093635;28;20016;-74
2022/07/23 10:52:24;;;;;;;3.22;2.92;;;22.10;99.40;;;;;;5094186;28;20016;-73
2022/07/23 10:55:16;;;;;;;8.02;3.75;;;22.10;99.30;;;;;;5094261;28;20032;-73
2022/07/23 10:57:51;;;;;;;3.85;2.85;;;22.20;99.70;;;;;;5081527;28;20108;-73
2022/07/23 11:00:25;;;;;;;2.40;2.20;;;22.30;99.60;;;;;;5084814;28;20021;-74
2022/07/23 11:02:53;;;;;;;2.65;2.45;;;22.50;98.80;;;;;;5077798;28;20091;-73
2022/07/23 11:05:47;;;;;;;2.35;2.20;;;22.60;98.10;;;;;;5073173;28;20043;-73
2022/07/23 11:08:17;;;;;;;3.30;2.78;;;22.70;98.80;;;;;;5072973;28;20036;-72
2022/07/23 11:10:45;;;;;;;3.50;2.40;;;22.80;97.50;;;;;;5074197;28;20059;-73
2022/07/23 11:13:41;;;;;;;3.28;2.50;;;22.80;97.00;;;;;;5096869;28;20032;-74
2022/07/23 11:16:22;;;;;;;4.95;2.53;;;22.80;97.70;;;;;;5100977;28;20035;-73
2022/07/23 11:18:48;;;;;;;5.40;3.08;;;22.80;96.80;;;;;;5102538;28;20033;-73
2022/07/23 11:21:23;;;;;;;2.65;2.33;;;22.80;96.10;;;;;;5094910;28;20499;-73
2022/07/23 11:24:02;;;;;;;5.70;2.80;;;22.70;96.60;;;;;;5105064;28;20024;-73
2022/07/23 11:26:39;;;;;;;4.47;3.83;;;22.80;97.20;;;;;;5102215;28;20029;-72
2022/07/23 11:29:36;;;;;;;3.65;3.35;;;22.80;96.80;;;;;;5095190;28;20103;-73
2022/07/23 11:32:24;;;;;;;4.57;3.63;;;22.70;97.20;;;;;;5103699;28;20072;-74
2022/07/23 11:34:53;;;;;;;3.40;3.03;;;22.50;97.80;;;;;;5103795;28;20024;-73
2022/07/23 11:37:38;;;;;;;4.55;3.80;;;22.70;98.00;;;;;;5097937;28;20052;-73
2022/07/23 11:40:11;;;;;;;3.40;3.10;;;22.70;97.80;;;;;;5108692;28;20143;-74
2022/07/23 11:42:38;;;;;;;5.50;3.20;;;22.80;98.30;;;;;;5109457;28;20119;-73
2022/07/23 11:45:07;;;;;;;3.85;3.55;;;23.00;98.30;;;;;;5110255;28;20428;-73
2022/07/23 11:47:42;;;;;;;4.53;3.50;;;23.10;97.30;;;;;;5106355;28;20102;-73
2022/07/23 11:50:08;;;;;;;3.55;3.25;;;23.20;97.20;;;;;;5108094;28;20474;-73
2022/07/23 11:52:34;;;;;;;4.07;3.67;;;23.40;97.20;;;;;;5111091;28;20107;-74
2022/07/23 11:55:05;;;;;;;3.03;2.83;;;23.50;97.00;;;;;;5110903;28;20035;-73
2022/07/23 11:57:41;;;;;;;3.88;3.53;;;23.50;96.90;;;;;;5095475;28;20112;-74
2022/07/23 12:00:14;;;;;;;3.38;3.03;;;23.60;96.40;;;;;;5085670;28;20387;-73
2022/07/23 12:02:43;;;;;;;3.08;2.78;;;23.70;96.70;;;;;;5074065;28;20508;-73
2022/07/23 12:05:13;;;;;;;5.40;3.72;;;23.80;96.30;;;;;;5075407;28;20139;-72
2022/07/23 12:07:44;;;;;;;3.63;2.97;;;23.90;95.90;;;;;;5071119;28;20137;-73
2022/07/23 12:10:11;;;;;;;4.20;3.80;;;24.00;96.10;;;;;;5071859;28;20040;-73
2022/07/23 12:12:49;;;;;;;3.88;3.58;;;24.00;95.30;;;;;;5072313;28;20114;-73
2022/07/23 12:15:16;;;;;;;3.65;3.05;;;23.90;95.10;;;;;;5072927;28;20029;-73
2022/07/23 12:17:45;;;;;;;4.43;3.28;;;23.90;95.30;;;;;;5072011;28;20033;-72
2022/07/23 12:20:24;;;;;;;4.32;3.00;;;23.90;95.90;;;;;;5072433;28;20023;-73
2022/07/23 12:22:55;;;;;;;4.78;3.65;;;24.00;96.10;;;;;;5071890;28;20040;-73
2022/07/23 12:25:23;;;;;;;4.25;2.80;;;24.10;95.80;;;;;;5072066;28;20104;-72
2022/07/23 12:28:07;;;;;;;4.28;2.53;;;24.20;95.60;;;;;;5071967;28;20027;-73
2022/07/23 12:30:43;;;;;;;2.38;2.20;;;24.40;95.10;;;;;;5071834;28;20480;-74
2022/07/23 12:33:12;;;;;;;3.47;1.95;;;24.50;94.60;;;;;;5071791;28;20028;-73
2022/07/23 12:35:43;;;;;;;2.42;2.20;;;24.60;93.70;;;;;;5071608;28;20043;-73
2022/07/23 12:38:14;;;;;;;4.85;2.00;;;24.70;92.70;;;;;;5071267;28;20029;-73
2022/07/23 12:40:47;;;;;;;1.80;1.70;;;24.80;92.90;;;;;;5084137;28;20092;-74
2022/07/23 12:43:29;;;;;;;2.58;2.30;;;24.80;92.60;;;;;;5089748;28;20506;-74
2022/07/23 12:46:33;;;;;;;3.70;3.40;;;25.00;93.20;;;;;;5078385;28;20684;-73
2022/07/23 12:48:59;;;;;;;3.38;2.30;;;25.20;93.70;;;;;;4990464;28;20032;-73
2022/07/23 12:51:27;;;;;;;2.22;1.90;;;25.30;93.30;;;;;;5071566;28;20114;-72
2022/07/23 12:54:03;;;;;;;4.80;2.47;;;25.40;93.00;;;;;;5085463;28;20498;-74